createdAt,value
2019-04-10T00:01:47.304Z,4.76
2019-04-10T00:07:09.472Z,5.10
2019-04-10T00:12:05.309Z,4.10
2019-04-10T00:17:13.218Z,4.97
2019-04-10T00:22:22.237Z,4.52
2019-04-10T00:27:30.483Z,4.01
2019-04-10T00:32:40.192Z,5.04
2019-04-10T00:37:47.673Z,4.46
2019-04-10T00:42:57.189Z,4.01
2019-04-10T00:48:05.801Z,3.94
2019-04-10T00:53:13.375Z,4.39
2019-04-10T00:58:22.557Z,4.66
2019-04-10T01:03:32.033Z,3.99
2019-04-10T01:08:40.543Z,3.79
2019-04-10T01:13:48.101Z,3.49
2019-04-10T01:18:56.944Z,3.66
2019-04-10T01:24:05.848Z,3.38
2019-04-10T01:29:15.482Z,3.24
2019-04-10T01:34:23.313Z,3.27
2019-04-10T01:39:32.617Z,3.24
2019-04-10T01:44:40.631Z,2.97
2019-04-10T01:49:50.263Z,3.14
2019-04-10T01:54:57.733Z,2.94
2019-04-10T02:00:06.823Z,2.88
2019-04-10T02:05:16.494Z,2.81
2019-04-10T02:10:23.878Z,2.93
2019-04-10T02:15:32.653Z,2.89
2019-04-10T02:20:41.571Z,3.12
2019-04-10T02:25:50.508Z,2.95
2019-04-10T02:31:00.691Z,2.75
2019-04-10T02:36:08.520Z,2.70
2019-04-10T02:41:17.400Z,2.82
2019-04-10T02:46:25.082Z,2.66
2019-04-10T02:51:34.959Z,3.03
2019-04-10T02:56:43.235Z,2.78
2019-04-10T03:01:51.693Z,2.82
2019-04-10T03:06:59.810Z,3.00
2019-04-10T03:12:08.363Z,3.49
2019-04-10T03:17:15.576Z,2.97
2019-04-10T03:22:24.967Z,3.14
2019-04-10T03:27:32.537Z,2.99
2019-04-10T03:32:44.590Z,3.25
2019-04-10T03:37:50.742Z,3.03
2019-04-10T03:42:58.260Z,2.85
2019-04-10T03:48:08.311Z,2.97
2019-04-10T03:53:16.047Z,3.00
2019-04-10T03:58:23.929Z,2.57
2019-04-10T04:03:32.955Z,2.63
2019-04-10T04:08:40.728Z,2.77
2019-04-10T04:13:50.059Z,2.90
2019-04-10T04:18:58.075Z,4.19
2019-04-10T04:24:07.161Z,4.24
2019-04-10T04:29:16.418Z,3.52
2019-04-10T04:34:25.026Z,2.86
2019-04-10T04:39:33.022Z,3.90
2019-04-10T04:44:41.010Z,2.88
2019-04-10T04:49:50.273Z,3.08
2019-04-10T04:54:58.526Z,2.72
2019-04-10T05:00:07.787Z,4.06
2019-04-10T05:05:16.419Z,4.34
2019-04-10T05:10:25.130Z,3.45
2019-04-10T05:15:33.259Z,3.58
2019-04-10T05:20:45.394Z,3.05
2019-04-10T05:25:49.774Z,3.10
2019-04-10T05:30:58.834Z,3.12
2019-04-10T05:36:07.253Z,3.09
2019-04-10T05:41:15.632Z,3.06
2019-04-10T05:46:24.974Z,3.57
2019-04-10T05:51:33.028Z,3.54
2019-04-10T05:56:42.698Z,3.33
2019-04-10T06:01:50.553Z,3.45
2019-04-10T06:06:59.191Z,3.48
2019-04-10T06:12:08.087Z,3.72
2019-04-10T06:17:17.004Z,3.34
2019-04-10T06:22:26.438Z,3.74
2019-04-10T06:27:34.695Z,3.35
2019-04-10T06:32:43.168Z,3.23
2019-04-10T06:37:51.159Z,3.37
2019-04-10T06:43:00.936Z,3.29
2019-04-10T06:48:08.917Z,3.10
2019-04-10T06:53:18.566Z,3.12
2019-04-10T06:58:25.494Z,2.73
2019-04-10T07:03:45.712Z,3.29
2019-04-10T07:08:45.369Z,2.80
2019-04-10T07:13:51.517Z,3.97
2019-04-10T07:19:03.102Z,3.87
2019-04-10T07:24:09.310Z,3.89
2019-04-10T07:29:18.747Z,4.11
2019-04-10T07:34:26.955Z,3.65
2019-04-10T07:39:34.081Z,3.43
2019-04-10T07:44:41.495Z,3.36
2019-04-10T07:49:50.387Z,3.03
2019-04-10T07:54:59.328Z,3.81
2019-04-10T08:00:09.014Z,3.32
2019-04-10T08:05:16.700Z,3.19
2019-04-10T08:10:26.414Z,3.80
2019-04-10T08:15:33.878Z,3.39
2019-04-10T08:20:42.791Z,3.34
2019-04-10T08:25:51.716Z,2.91
2019-04-10T08:31:01.024Z,3.06
2019-04-10T08:36:08.951Z,3.31
2019-04-10T08:41:17.821Z,3.37
2019-04-10T08:46:26.725Z,2.64
2019-04-10T08:51:35.623Z,2.99
2019-04-10T08:56:44.923Z,2.72
2019-04-10T09:01:53.639Z,2.89
2019-04-10T09:07:03.733Z,3.13
2019-04-10T09:12:09.698Z,2.77
2019-04-10T09:17:19.376Z,3.06
2019-04-10T09:22:26.961Z,2.14
2019-04-10T09:27:35.990Z,2.20
2019-04-10T09:32:44.779Z,1.98
2019-04-10T09:37:54.562Z,2.29
2019-04-10T09:43:02.092Z,1.74
2019-04-10T09:48:10.940Z,2.02
2019-04-10T09:53:19.863Z,1.99
2019-04-10T09:58:29.568Z,2.00
2019-04-10T10:03:37.113Z,1.73
2019-04-10T10:08:45.974Z,1.68
2019-04-10T10:13:54.848Z,1.57
2019-04-10T10:19:03.763Z,2.19
2019-04-10T10:24:12.644Z,2.16
2019-04-10T10:29:21.786Z,1.75
2019-04-10T10:34:30.371Z,1.85
2019-04-10T10:39:39.239Z,1.83
2019-04-10T10:44:48.154Z,1.66
2019-04-10T10:49:56.997Z,1.54
2019-04-10T10:55:05.876Z,1.78
2019-04-10T11:00:14.756Z,1.36
2019-04-10T11:05:23.680Z,1.50
2019-04-10T11:10:33.722Z,1.57
2019-04-10T11:15:43.296Z,1.26
2019-04-10T11:20:49.909Z,1.43
2019-04-10T11:25:57.913Z,1.35
2019-04-10T11:31:07.146Z,1.50
2019-04-10T11:36:15.845Z,1.54
2019-04-10T11:41:26.207Z,1.55
2019-04-10T11:46:35.291Z,1.48
2019-04-10T11:51:44.208Z,1.77
2019-04-10T11:56:52.675Z,1.96
2019-04-10T12:02:05.145Z,2.02
2019-04-10T12:07:09.769Z,2.38
2019-04-10T12:12:15.459Z,1.82
2019-04-10T12:17:25.554Z,2.60
2019-04-10T12:22:33.796Z,2.35
2019-04-10T12:27:41.300Z,2.05
2019-04-10T12:32:50.219Z,2.13
2019-04-10T12:38:02.859Z,2.42
2019-04-10T12:43:08.447Z,2.14
2019-04-10T12:48:16.678Z,1.86
2019-04-10T12:53:24.443Z,1.91
2019-04-10T12:58:33.351Z,2.18
2019-04-10T13:03:43.146Z,2.09
2019-04-10T13:09:00.772Z,1.93
2019-04-10T13:14:00.080Z,1.65
2019-04-10T13:19:07.676Z,1.86
2019-04-10T13:24:17.390Z,1.52
2019-04-10T13:29:25.041Z,1.94
2019-04-10T13:34:33.960Z,1.80
2019-04-10T13:39:43.318Z,1.88
2019-04-10T13:44:51.322Z,1.56
2019-04-10T13:50:00.197Z,1.51
2019-04-10T13:55:10.230Z,1.38
2019-04-10T14:00:17.604Z,1.40
2019-04-10T14:05:27.563Z,1.58
2019-04-10T14:10:35.267Z,1.57
2019-04-10T14:15:44.260Z,1.31
2019-04-10T14:20:51.871Z,1.56
2019-04-10T14:26:00.821Z,1.57
2019-04-10T14:31:09.711Z,1.59
2019-04-10T14:36:18.615Z,1.73
2019-04-10T14:41:27.633Z,1.65
2019-04-10T14:46:36.408Z,1.69
2019-04-10T14:51:46.343Z,1.83
2019-04-10T14:56:54.580Z,2.05
2019-04-10T15:02:02.320Z,1.91
2019-04-10T15:07:12.167Z,2.07
2019-04-10T15:12:20.444Z,2.32
2019-04-10T15:17:28.666Z,2.26
2019-04-10T15:22:36.284Z,2.42
2019-04-10T15:27:46.011Z,2.70
2019-04-10T15:32:53.925Z,4.41
2019-04-10T15:38:02.472Z,3.57
2019-04-10T15:43:12.540Z,3.83
2019-04-10T15:48:20.673Z,4.30
2019-04-10T15:53:28.654Z,4.88
2019-04-10T15:58:37.175Z,3.57
2019-04-10T16:03:47.081Z,3.88
2019-04-10T16:08:54.641Z,3.61
2019-04-10T16:14:15.716Z,6.27
2019-04-10T16:19:11.958Z,7.03
2019-04-10T16:24:20.685Z,7.01
2019-04-10T16:29:29.413Z,5.91
2019-04-10T16:34:38.706Z,4.79
2019-04-10T16:39:57.852Z,4.86
2019-04-10T16:44:55.140Z,4.96
2019-04-10T16:50:04.034Z,5.15
2019-04-10T16:55:12.903Z,6.47
2019-04-10T17:00:22.227Z,4.87
2019-04-10T17:05:30.621Z,4.45
2019-04-10T17:10:38.766Z,4.81
2019-04-10T17:15:48.994Z,5.29
2019-04-10T17:20:57.116Z,4.19
2019-04-10T17:26:04.418Z,4.10
2019-04-10T17:31:14.251Z,4.10
2019-04-10T17:36:21.557Z,4.61
2019-04-10T17:41:31.389Z,4.30
2019-04-10T17:46:39.516Z,4.00
2019-04-10T17:51:47.312Z,3.38
2019-04-10T17:56:56.874Z,3.32
2019-04-10T18:02:05.547Z,3.33
2019-04-10T18:07:14.367Z,3.46
2019-04-10T18:12:23.749Z,3.23
2019-04-10T18:17:33.185Z,2.91
2019-04-10T18:22:40.753Z,2.89
2019-04-10T18:27:49.549Z,2.99
2019-04-10T18:32:58.427Z,3.04
2019-04-10T18:38:07.294Z,3.43
2019-04-10T18:43:16.167Z,2.71
2019-04-10T18:48:25.021Z,2.72
2019-04-10T18:53:35.131Z,2.44
2019-04-10T18:58:42.346Z,2.53
2019-04-10T19:03:56.480Z,2.47
2019-04-10T19:09:08.439Z,2.50
2019-04-10T19:14:08.039Z,2.87
2019-04-10T19:19:16.922Z,2.52
2019-04-10T19:24:25.914Z,2.66
2019-04-10T19:29:34.643Z,2.39
2019-04-10T19:34:43.517Z,2.62
2019-04-10T19:39:52.479Z,2.89
2019-04-10T19:45:01.624Z,2.69
2019-04-10T19:50:11.005Z,2.50
2019-04-10T19:55:18.165Z,2.70
2019-04-10T20:00:28.201Z,2.67
2019-04-10T20:05:35.646Z,3.81
2019-04-10T20:10:45.472Z,3.49
2019-04-10T20:15:53.084Z,3.20
2019-04-10T20:21:01.948Z,3.23
2019-04-10T20:26:10.744Z,3.41
2019-04-10T20:31:19.658Z,3.06
2019-04-10T20:36:29.117Z,3.53
2019-04-10T20:41:46.530Z,3.28
2019-04-10T20:46:46.481Z,3.93
2019-04-10T20:51:53.744Z,3.47
2019-04-10T20:57:03.355Z,3.72
2019-04-10T21:02:11.788Z,3.88
2019-04-10T21:07:19.496Z,3.41
2019-04-10T21:12:28.357Z,3.72
2019-04-10T21:17:37.501Z,3.82
2019-04-10T21:22:47.190Z,3.92
2019-04-10T21:27:55.067Z,3.49
2019-04-10T21:33:03.908Z,3.78
2019-04-10T21:38:11.329Z,3.41
2019-04-10T21:43:21.352Z,3.96
2019-04-10T21:48:28.671Z,3.60
2019-04-10T21:53:38.770Z,3.66
2019-04-10T21:58:46.520Z,3.86
2019-04-10T22:03:54.360Z,4.70
2019-04-10T22:09:04.113Z,4.70
2019-04-10T22:14:11.664Z,4.70
2019-04-10T22:19:21.002Z,4.47
2019-04-10T22:24:29.843Z,4.39
2019-04-10T22:29:37.372Z,4.65
2019-04-10T22:34:46.476Z,3.95
2019-04-10T22:39:56.567Z,4.29
2019-04-10T22:45:04.483Z,4.56
2019-04-10T22:50:12.740Z,4.22
2019-04-10T22:55:21.747Z,4.22
2019-04-10T23:00:30.203Z,3.93
2019-04-10T23:05:37.460Z,4.12
2019-04-10T23:10:46.322Z,3.98
2019-04-10T23:15:55.661Z,3.73
2019-04-10T23:21:04.001Z,4.18
2019-04-10T23:26:13.134Z,4.39
2019-04-10T23:31:21.519Z,4.05
2019-04-10T23:36:29.795Z,3.94
2019-04-10T23:41:37.898Z,4.62
2019-04-10T23:46:45.644Z,4.03
2019-04-10T23:51:55.652Z,4.36
2019-04-10T23:57:03.198Z,3.77
